Hauptseite
METAR-TAF:

METAR-TAF

Flughäfen :

Militärflugplatz Deelen

Arnheim, Niederlande

Breite: 52-04N, Länge: 005-53E, Höhe: 48 m

Beobachtung

Neuester Wetterbericht von vor 24 Minuten, um 07:55 UTC
Wind 4 kt aus Nordost, variierte zwischen Nord und Ost/Südost
Temperatur 11°C
Luftfeuchtigkeit 94%
Luftdruck 1012 hPa
Sichtweite: 4600 m
Geschlossene Wolkendecke in der Höhe von 700 ft
Leichtregen

METAR: EHDL 230755Z AUTO 05004KT 350V110 4600 -RA OVC007 11/10 Q1012 RERA REDZ GRN

Zeit: 10:19 (08:19 UTC)


TAF: fehlend

Wetterbeobachtungen und Prognosen von mehr als 4000 Flughäfen (METAR und TAF Bericht).

Die verfügbaren Stationen werden durch gelbe und rote Markierungen auf der Karte dargestellt.

Führen Sie die Maus auf sie, um den Namen der Station zu sehen.

Darauf klicken, um die Beobachtung von Wetterbeobachtungen und Prognosen zu sehen.

Um die Karte zu ändern : klicken Sie auf den grünen Tasten mit einem schwarzen Kreuz Zum Vergrößern, auf den grünen Button mit einem Gedankenstrich zu verkleinern, oder auf die grünen Pfeile für benachbarte Karten.


METAR-TAF: